Terminal Aerodrome Forecast
Issued by NWS

Home | Current Version | Previous Version | Text Only | Print | Product List | Glossary On
Versions: 1 2 3 4 5 6 7 8 9 10 11 12 13 14 15 16 17 18 19 20 21 22 23 24 25 26 27 28 29
000
FTUS41 KOKX 270200 AAA
TAFHPN
TAF AMD
KHPN 270234Z 2703/2724 33017G25KT 3SM -SN BR OVC008
      TEMPO 2703/2705 1SM -SN BR
     FM270500 32012KT P6SM BKN030 BKN100
     FM271000 32007KT P6SM BKN030
      AMD NOT SKED=

USA.gov is the U.S. government's official web portal to all federal, state and local government web resources and services.